createdAt,value
2024-01-30T00:00:58.862Z,24.47
2024-01-30T00:03:47.291Z,24.23
2024-01-30T00:06:15.565Z,20.05
2024-01-30T00:08:43.738Z,17.27
2024-01-30T00:11:11.502Z,18.85
2024-01-30T00:13:39.431Z,21.33
2024-01-30T00:16:10.797Z,20.25
2024-01-30T00:18:39.317Z,24.58
2024-01-30T00:21:07.014Z,17.65
2024-01-30T00:23:35.424Z,17.08
2024-01-30T00:26:03.082Z,22.43
2024-01-30T00:28:31.086Z,17.05
2024-01-30T00:30:58.650Z,23.25
2024-01-30T00:33:27.230Z,19.15
2024-01-30T00:35:55.132Z,15.98
2024-01-30T00:38:23.961Z,18.13
2024-01-30T00:40:51.638Z,16.27
2024-01-30T00:43:20.204Z,19.70
2024-01-30T00:45:48.108Z,19.17
2024-01-30T00:48:16.335Z,22.17
2024-01-30T00:50:43.802Z,21.47
2024-01-30T00:53:11.764Z,34.45
2024-01-30T00:55:39.774Z,29.80
2024-01-30T00:58:07.818Z,33.03
2024-01-30T01:00:35.486Z,34.38
2024-01-30T01:03:04.963Z,34.30
2024-01-30T01:05:32.845Z,30.20
2024-01-30T01:08:00.864Z,32.72
2024-01-30T01:10:29.634Z,31.48
2024-01-30T01:12:57.684Z,28.83
2024-01-30T01:15:30.015Z,28.60
2024-01-30T01:17:59.014Z,27.00
2024-01-30T01:20:26.544Z,28.27
2024-01-30T01:22:54.742Z,23.42
2024-01-30T01:25:22.421Z,25.73
2024-01-30T01:27:54.063Z,23.90
2024-01-30T01:30:23.860Z,25.50
2024-01-30T01:32:56.729Z,36.83
2024-01-30T01:35:28.124Z,38.42
2024-01-30T01:37:56.719Z,44.03
2024-01-30T01:40:25.860Z,32.83
2024-01-30T01:42:55.445Z,30.80
2024-01-30T01:45:23.322Z,25.88
2024-01-30T01:47:54.370Z,25.58
2024-01-30T01:50:23.658Z,46.67
2024-01-30T01:52:53.087Z,47.37
2024-01-30T01:55:26.465Z,47.42
2024-01-30T01:57:55.558Z,41.45
2024-01-30T02:00:23.737Z,35.67
2024-01-30T02:02:53.342Z,31.45
2024-01-30T02:05:21.461Z,25.17
2024-01-30T02:07:49.877Z,22.35
2024-01-30T02:10:17.680Z,29.73
2024-01-30T02:12:45.719Z,27.30
2024-01-30T02:15:15.668Z,24.52
2024-01-30T02:17:43.678Z,30.37
2024-01-30T02:20:11.956Z,30.05
2024-01-30T02:22:41.702Z,36.58
2024-01-30T02:25:09.784Z,38.05
2024-01-30T02:27:37.806Z,31.77
2024-01-30T02:30:06.165Z,25.30
2024-01-30T02:32:34.219Z,31.45
2024-01-30T02:35:01.994Z,34.20
2024-01-30T02:37:30.041Z,29.00
2024-01-30T02:39:57.904Z,28.23
2024-01-30T02:42:25.734Z,25.80
2024-01-30T02:44:53.322Z,23.20
2024-01-30T02:47:21.304Z,24.52
2024-01-30T02:49:49.593Z,18.23
2024-01-30T02:52:18.294Z,12.30
2024-01-30T02:54:45.961Z,10.30
2024-01-30T02:57:13.966Z,13.57
2024-01-30T02:59:41.602Z,13.05
2024-01-30T03:02:09.590Z,11.68
2024-01-30T03:04:37.222Z,11.77
2024-01-30T03:07:05.604Z,9.43
2024-01-30T03:09:33.189Z,9.02
2024-01-30T03:12:01.327Z,11.90
2024-01-30T03:14:29.090Z,9.10
2024-01-30T03:16:57.020Z,11.20
2024-01-30T03:19:24.776Z,19.20
2024-01-30T03:21:53.036Z,10.50
2024-01-30T03:24:20.797Z,11.40
2024-01-30T03:26:48.809Z,10.13
2024-01-30T03:29:17.614Z,10.88
2024-01-30T03:31:45.608Z,13.67
2024-01-30T03:34:13.442Z,11.10
2024-01-30T03:36:45.986Z,13.23
2024-01-30T03:39:13.512Z,13.43
2024-01-30T03:41:45.848Z,12.05
2024-01-30T03:44:13.789Z,15.17
2024-01-30T03:46:41.558Z,13.68
2024-01-30T03:49:09.389Z,19.58
2024-01-30T03:51:37.337Z,17.88
2024-01-30T03:54:05.013Z,26.65
2024-01-30T03:56:32.865Z,19.37
2024-01-30T03:59:02.107Z,20.95
2024-01-30T04:01:30.152Z,19.40
2024-01-30T04:03:58.437Z,21.48
2024-01-30T04:06:26.531Z,39.95
2024-01-30T04:08:54.191Z,41.23
2024-01-30T04:11:22.304Z,27.90
2024-01-30T04:13:51.018Z,25.25
2024-01-30T04:16:24.071Z,24.52
2024-01-30T04:18:53.345Z,21.10
2024-01-30T04:21:23.290Z,22.47
2024-01-30T04:23:53.008Z,23.92
2024-01-30T04:26:21.106Z,23.45
2024-01-30T04:28:48.807Z,21.15
2024-01-30T04:31:16.765Z,34.42
2024-01-30T04:33:44.552Z,30.03
2024-01-30T04:36:12.672Z,23.33
2024-01-30T04:38:40.814Z,21.75
2024-01-30T04:41:08.934Z,28.73
2024-01-30T04:43:37.376Z,22.20
2024-01-30T04:46:06.559Z,19.00
2024-01-30T04:48:34.546Z,22.27
2024-01-30T04:51:05.324Z,27.33
2024-01-30T04:53:33.493Z,41.33
2024-01-30T04:56:01.555Z,26.15
2024-01-30T04:58:29.644Z,42.10
2024-01-30T05:00:58.773Z,31.42
2024-01-30T05:03:26.972Z,29.02
2024-01-30T05:05:55.401Z,22.40
2024-01-30T05:08:23.346Z,30.55
2024-01-30T05:10:51.325Z,29.57
2024-01-30T05:13:19.189Z,32.83
2024-01-30T05:15:47.198Z,41.15
2024-01-30T05:18:15.308Z,40.88
2024-01-30T05:20:43.736Z,42.60
2024-01-30T05:23:11.991Z,30.37
2024-01-30T05:25:40.328Z,31.73
2024-01-30T05:28:08.314Z,34.30
2024-01-30T05:30:36.854Z,37.40
2024-01-30T05:33:05.531Z,38.17
2024-01-30T05:35:33.867Z,31.97
2024-01-30T05:38:02.041Z,41.17
2024-01-30T05:40:30.222Z,36.95
2024-01-30T05:43:02.936Z,56.42
2024-01-30T05:45:31.368Z,59.38
2024-01-30T05:47:59.202Z,53.30
2024-01-30T05:50:28.162Z,53.33
2024-01-30T05:52:55.850Z,32.00
2024-01-30T05:55:24.433Z,41.30
2024-01-30T05:57:53.996Z,26.75
2024-01-30T06:00:22.415Z,57.63
2024-01-30T06:02:50.228Z,41.92
2024-01-30T06:05:18.838Z,71.85
2024-01-30T06:07:46.627Z,65.15
2024-01-30T06:10:15.197Z,51.83
2024-01-30T06:12:43.109Z,42.83
2024-01-30T06:15:11.587Z,52.70
2024-01-30T06:17:39.287Z,38.55
2024-01-30T06:20:08.269Z,41.33
2024-01-30T06:22:36.060Z,51.80
2024-01-30T06:25:04.505Z,130.80
2024-01-30T06:27:32.216Z,75.68
2024-01-30T06:30:00.568Z,35.97
2024-01-30T06:33:00.449Z,50.38
2024-01-30T06:35:30.479Z,55.97
2024-01-30T06:38:01.181Z,55.03
2024-01-30T06:40:30.465Z,71.30
2024-01-30T06:42:59.015Z,66.22
2024-01-30T06:45:27.417Z,43.88
2024-01-30T06:47:55.282Z,66.68
2024-01-30T06:50:24.421Z,55.37
2024-01-30T06:52:52.520Z,48.35
2024-01-30T06:55:21.092Z,43.60
2024-01-30T06:57:50.021Z,85.35
2024-01-30T07:00:21.437Z,49.83
2024-01-30T07:02:49.423Z,47.97
2024-01-30T07:05:19.937Z,48.60
2024-01-30T07:07:48.960Z,47.63
2024-01-30T07:10:21.305Z,34.58
2024-01-30T07:12:49.533Z,29.63
2024-01-30T07:18:31.502Z,27.95
2024-01-30T07:20:59.945Z,31.13
2024-01-30T07:23:28.230Z,33.08
2024-01-30T07:25:56.791Z,28.80
2024-01-30T07:28:24.846Z,100.23
2024-01-30T07:30:53.534Z,34.63
2024-01-30T07:33:21.930Z,26.77
2024-01-30T07:35:50.648Z,29.85
2024-01-30T07:38:18.585Z,36.65
2024-01-30T07:40:47.585Z,38.23
2024-01-30T07:43:15.481Z,25.42
2024-01-30T07:45:44.047Z,30.27
2024-01-30T07:48:12.330Z,27.88
2024-01-30T07:50:40.934Z,30.80
2024-01-30T07:53:08.946Z,37.27
2024-01-30T07:55:37.746Z,29.38
2024-01-30T07:58:06.462Z,28.50
2024-01-30T08:00:35.160Z,27.33
2024-01-30T08:03:03.362Z,28.40
2024-01-30T08:05:32.641Z,33.00
2024-01-30T08:08:03.840Z,31.73
2024-01-30T08:10:32.549Z,26.42
2024-01-30T08:13:00.780Z,30.40
2024-01-30T08:15:29.453Z,34.08
2024-01-30T08:18:22.954Z,39.30
2024-01-30T08:20:51.550Z,36.03
2024-01-30T08:23:19.603Z,32.35
2024-01-30T08:25:48.074Z,31.42
2024-01-30T08:28:18.055Z,26.85
2024-01-30T08:30:47.305Z,30.27
2024-01-30T08:33:15.409Z,28.55
2024-01-30T08:35:44.049Z,32.78
2024-01-30T08:38:15.625Z,27.73
2024-01-30T08:40:44.288Z,31.33
2024-01-30T08:43:12.767Z,31.80
2024-01-30T08:45:41.294Z,29.20
2024-01-30T08:48:09.979Z,36.42
2024-01-30T08:50:39.228Z,41.67
2024-01-30T08:53:07.146Z,25.05
2024-01-30T08:55:35.672Z,30.53
2024-01-30T08:58:05.652Z,32.53
2024-01-30T09:00:33.759Z,29.75
2024-01-30T09:03:01.395Z,32.15
2024-01-30T09:05:29.602Z,29.58
2024-01-30T09:07:57.484Z,27.63
2024-01-30T09:10:26.038Z,27.17
2024-01-30T09:12:54.304Z,34.35
2024-01-30T09:15:26.559Z,29.17
2024-01-30T09:17:55.628Z,27.70
2024-01-30T09:20:24.598Z,26.13
2024-01-30T09:22:52.330Z,27.90
2024-01-30T09:25:20.903Z,24.00
2024-01-30T09:27:48.968Z,23.05
2024-01-30T09:30:17.317Z,23.65
2024-01-30T09:32:45.385Z,24.53
2024-01-30T09:35:13.671Z,26.05
2024-01-30T09:37:41.621Z,22.88
2024-01-30T09:40:10.416Z,30.08
2024-01-30T09:42:38.838Z,27.42
2024-01-30T09:45:07.911Z,30.40
2024-01-30T09:47:44.544Z,21.08
2024-01-30T09:50:14.881Z,18.85
2024-01-30T09:52:44.495Z,16.90
2024-01-30T09:55:13.451Z,16.77
2024-01-30T09:57:43.306Z,22.50
2024-01-30T10:00:12.780Z,17.33
2024-01-30T10:02:42.122Z,21.58
2024-01-30T10:05:11.169Z,26.45
2024-01-30T10:07:39.891Z,20.58
2024-01-30T10:10:08.729Z,26.07
2024-01-30T10:12:37.115Z,26.25
2024-01-30T10:15:10.116Z,26.17
2024-01-30T10:17:40.580Z,25.05
2024-01-30T10:20:09.925Z,25.90
2024-01-30T10:22:38.223Z,23.93
2024-01-30T10:25:07.560Z,22.83
2024-01-30T10:27:35.936Z,26.10
2024-01-30T10:30:05.602Z,19.30
2024-01-30T10:32:33.714Z,24.27
2024-01-30T10:35:02.667Z,22.20
2024-01-30T10:37:34.655Z,21.52
2024-01-30T10:40:07.547Z,21.08
2024-01-30T10:42:39.624Z,19.38
2024-01-30T10:45:16.343Z,19.52
2024-01-30T10:48:05.718Z,18.00
2024-01-30T10:50:40.337Z,17.77
2024-01-30T10:53:12.368Z,18.80
2024-01-30T10:55:43.778Z,16.80
2024-01-30T10:58:13.438Z,18.30
2024-01-30T11:00:42.329Z,15.17
2024-01-30T11:03:11.083Z,17.55
2024-01-30T11:05:43.330Z,14.65
2024-01-30T11:08:15.971Z,16.70
2024-01-30T11:10:48.009Z,16.73
2024-01-30T11:13:17.180Z,16.97
2024-01-30T11:15:54.920Z,17.05
2024-01-30T11:18:33.328Z,17.10
2024-01-30T11:21:08.208Z,17.40
2024-01-30T11:23:37.752Z,29.30
2024-01-30T11:26:06.007Z,22.37
2024-01-30T11:28:39.546Z,15.65
2024-01-30T11:31:08.872Z,14.38
2024-01-30T11:33:36.792Z,13.60
2024-01-30T11:36:08.615Z,16.00
2024-01-30T11:38:36.477Z,14.57
2024-01-30T11:41:07.949Z,18.45
2024-01-30T11:43:55.471Z,11.95
2024-01-30T11:46:26.994Z,11.63
2024-01-30T11:48:55.042Z,15.75
2024-01-30T11:51:23.096Z,11.57
2024-01-30T11:53:52.177Z,20.92
2024-01-30T11:56:20.693Z,13.38
2024-01-30T11:58:49.396Z,11.98
2024-01-30T12:01:18.976Z,12.40
2024-01-30T12:03:53.205Z,10.97
2024-01-30T12:06:21.879Z,11.40
2024-01-30T12:09:00.732Z,10.07
2024-01-30T12:11:32.571Z,10.00
2024-01-30T12:14:08.407Z,9.65
2024-01-30T12:16:41.584Z,11.03
2024-01-30T12:19:09.720Z,12.27
2024-01-30T12:21:39.877Z,14.05
2024-01-30T12:24:09.043Z,10.98
2024-01-30T12:26:37.062Z,14.27
2024-01-30T12:29:07.405Z,11.97
2024-01-30T12:31:35.856Z,14.02
2024-01-30T12:34:03.968Z,13.77
2024-01-30T12:36:32.747Z,9.75
2024-01-30T12:39:00.728Z,11.40
2024-01-30T12:41:30.402Z,8.27
2024-01-30T12:43:59.527Z,10.07
2024-01-30T12:46:31.653Z,7.93
2024-01-30T12:48:59.677Z,12.80
2024-01-30T12:51:28.196Z,9.23
2024-01-30T12:53:56.228Z,9.03
2024-01-30T12:56:24.509Z,9.15
2024-01-30T12:58:55.547Z,10.10
2024-01-30T13:01:24.723Z,11.57
2024-01-30T13:03:52.711Z,11.50
2024-01-30T13:06:21.349Z,11.40
2024-01-30T13:08:49.287Z,8.45
2024-01-30T13:11:25.155Z,9.02
2024-01-30T13:13:53.572Z,8.38
2024-01-30T13:16:21.726Z,8.40
2024-01-30T13:18:49.881Z,8.27
2024-01-30T13:21:17.890Z,7.50
2024-01-30T13:23:45.787Z,16.95
2024-01-30T13:26:14.083Z,11.50
2024-01-30T13:28:42.054Z,15.93
2024-01-30T13:31:10.475Z,34.03
2024-01-30T13:33:38.456Z,11.45
2024-01-30T13:36:09.461Z,8.07
2024-01-30T13:38:53.306Z,11.13
2024-01-30T13:41:31.636Z,10.60
2024-01-30T13:44:00.835Z,20.67
2024-01-30T13:46:47.925Z,11.90
2024-01-30T13:49:16.332Z,12.63
2024-01-30T13:51:44.691Z,14.35
2024-01-30T13:54:12.599Z,9.32
2024-01-30T13:56:56.422Z,22.23
2024-01-30T13:59:55.062Z,14.40
2024-01-30T14:02:37.285Z,28.88
2024-01-30T14:05:11.500Z,15.80
2024-01-30T14:07:41.985Z,35.97
2024-01-30T14:10:14.582Z,27.40
2024-01-30T14:15:42.889Z,20.20
2024-01-30T14:18:39.041Z,18.17
2024-01-30T14:21:10.165Z,26.02
2024-01-30T14:23:38.689Z,21.67
2024-01-30T14:26:08.302Z,14.73
2024-01-30T14:28:36.039Z,22.52
2024-01-30T14:31:05.104Z,25.70
2024-01-30T14:33:34.277Z,18.35
2024-01-30T14:36:02.431Z,14.30
2024-01-30T14:38:30.366Z,18.83
2024-01-30T14:40:58.701Z,13.20
2024-01-30T14:43:28.154Z,20.23
2024-01-30T14:45:56.673Z,17.23
2024-01-30T14:48:24.608Z,18.63
2024-01-30T14:50:52.707Z,23.27
2024-01-30T14:53:20.332Z,16.75
2024-01-30T14:55:48.379Z,17.48
2024-01-30T14:58:16.158Z,13.88
2024-01-30T15:00:44.704Z,13.33
2024-01-30T15:03:12.400Z,24.45
2024-01-30T15:05:40.888Z,14.77
2024-01-30T15:08:12.121Z,15.13
2024-01-30T15:10:40.813Z,14.38
2024-01-30T15:13:10.209Z,14.53
2024-01-30T15:15:38.686Z,15.68
2024-01-30T15:18:06.710Z,16.10
2024-01-30T15:20:35.055Z,21.48
2024-01-30T15:23:07.976Z,17.02
2024-01-30T15:25:36.175Z,24.10
2024-01-30T15:28:04.394Z,23.88
2024-01-30T15:30:32.604Z,19.95
2024-01-30T15:33:00.668Z,24.83
2024-01-30T15:35:32.684Z,24.48
2024-01-30T15:38:09.898Z,19.30
2024-01-30T15:40:38.010Z,21.10
2024-01-30T15:43:05.751Z,21.75
2024-01-30T15:45:33.977Z,19.13
2024-01-30T15:48:03.739Z,18.65
2024-01-30T15:50:32.192Z,21.00
2024-01-30T15:53:11.610Z,21.42
2024-01-30T15:55:44.018Z,22.90
2024-01-30T15:59:31.402Z,26.30
2024-01-30T16:02:00.752Z,31.02
2024-01-30T16:04:58.581Z,31.83
2024-01-30T16:07:26.806Z,37.85
2024-01-30T16:09:54.595Z,55.60
2024-01-30T16:12:22.777Z,48.28
2024-01-30T16:14:50.457Z,52.80
2024-01-30T16:17:25.432Z,40.23
2024-01-30T16:19:53.337Z,42.85
2024-01-30T16:22:45.720Z,37.95
2024-01-30T16:25:19.312Z,39.00
2024-01-30T16:27:47.414Z,39.58
2024-01-30T16:30:44.985Z,34.47
2024-01-30T16:34:00.946Z,27.85
2024-01-30T16:36:44.829Z,24.27
2024-01-30T16:39:13.445Z,28.63
2024-01-30T16:41:41.922Z,26.75
